sensor_id;sensor_type;location;lat;lon;timestamp;P1;durP1;ratioP1;P2;durP2;ratioP2
65757;SDS011;52495;52.208;5.158;2022-12-07T00:00:43;9.13;;;6.10;;
65757;SDS011;52495;52.208;5.158;2022-12-07T00:03:10;11.00;;;5.55;;
65757;SDS011;52495;52.208;5.158;2022-12-07T00:05:37;6.90;;;4.95;;
65757;SDS011;52495;52.208;5.158;2022-12-07T00:08:05;8.18;;;5.32;;
65757;SDS011;52495;52.208;5.158;2022-12-07T00:10:32;8.77;;;5.10;;
65757;SDS011;52495;52.208;5.158;2022-12-07T00:12:59;10.27;;;5.70;;
65757;SDS011;52495;52.208;5.158;2022-12-07T00:15:26;11.07;;;5.82;;
65757;SDS011;52495;52.208;5.158;2022-12-07T00:17:53;8.60;;;5.65;;
65757;SDS011;52495;52.208;5.158;2022-12-07T00:20:19;9.70;;;4.53;;
65757;SDS011;52495;52.208;5.158;2022-12-07T00:22:46;13.15;;;5.18;;
65757;SDS011;52495;52.208;5.158;2022-12-07T00:25:14;10.32;;;4.68;;
65757;SDS011;52495;52.208;5.158;2022-12-07T00:27:41;7.55;;;4.95;;
65757;SDS011;52495;52.208;5.158;2022-12-07T00:30:08;8.30;;;5.35;;
65757;SDS011;52495;52.208;5.158;2022-12-07T00:32:35;9.68;;;4.80;;
65757;SDS011;52495;52.208;5.158;2022-12-07T00:35:02;8.93;;;4.80;;
65757;SDS011;52495;52.208;5.158;2022-12-07T00:37:29;8.93;;;5.20;;
65757;SDS011;52495;52.208;5.158;2022-12-07T00:39:55;9.18;;;5.18;;
65757;SDS011;52495;52.208;5.158;2022-12-07T00:42:23;6.22;;;4.18;;
65757;SDS011;52495;52.208;5.158;2022-12-07T00:44:50;8.80;;;4.38;;
65757;SDS011;52495;52.208;5.158;2022-12-07T00:47:17;8.02;;;3.90;;
65757;SDS011;52495;52.208;5.158;2022-12-07T00:49:43;8.60;;;4.30;;
65757;SDS011;52495;52.208;5.158;2022-12-07T00:52:10;6.65;;;4.05;;
65757;SDS011;52495;52.208;5.158;2022-12-07T00:54:37;5.47;;;4.00;;
65757;SDS011;52495;52.208;5.158;2022-12-07T00:57:03;8.63;;;4.43;;
65757;SDS011;52495;52.208;5.158;2022-12-07T00:59:31;8.55;;;4.05;;
65757;SDS011;52495;52.208;5.158;2022-12-07T01:01:58;6.07;;;4.35;;
65757;SDS011;52495;52.208;5.158;2022-12-07T01:04:25;7.10;;;4.03;;
65757;SDS011;52495;52.208;5.158;2022-12-07T01:06:52;6.38;;;4.80;;
65757;SDS011;52495;52.208;5.158;2022-12-07T01:09:18;9.02;;;4.07;;
65757;SDS011;52495;52.208;5.158;2022-12-07T01:11:45;7.03;;;3.95;;
65757;SDS011;52495;52.208;5.158;2022-12-07T01:14:12;6.70;;;5.03;;
65757;SDS011;52495;52.208;5.158;2022-12-07T01:16:40;9.60;;;4.22;;
65757;SDS011;52495;52.208;5.158;2022-12-07T01:19:06;13.73;;;4.10;;
65757;SDS011;52495;52.208;5.158;2022-12-07T01:21:34;7.38;;;4.40;;
65757;SDS011;52495;52.208;5.158;2022-12-07T01:24:02;8.05;;;4.00;;
65757;SDS011;52495;52.208;5.158;2022-12-07T01:26:30;5.50;;;3.58;;
65757;SDS011;52495;52.208;5.158;2022-12-07T01:28:57;9.55;;;4.63;;
65757;SDS011;52495;52.208;5.158;2022-12-07T01:31:26;6.68;;;3.85;;
65757;SDS011;52495;52.208;5.158;2022-12-07T01:33:56;6.80;;;3.67;;
65757;SDS011;52495;52.208;5.158;2022-12-07T01:36:24;7.93;;;4.38;;
65757;SDS011;52495;52.208;5.158;2022-12-07T01:38:54;9.07;;;3.67;;
65757;SDS011;52495;52.208;5.158;2022-12-07T01:41:22;6.50;;;3.88;;
65757;SDS011;52495;52.208;5.158;2022-12-07T01:44:07;6.07;;;3.40;;
65757;SDS011;52495;52.208;5.158;2022-12-07T01:46:43;8.70;;;3.53;;
65757;SDS011;52495;52.208;5.158;2022-12-07T01:49:14;7.75;;;3.13;;
65757;SDS011;52495;52.208;5.158;2022-12-07T01:51:44;9.65;;;3.97;;
65757;SDS011;52495;52.208;5.158;2022-12-07T01:54:13;8.70;;;3.00;;
65757;SDS011;52495;52.208;5.158;2022-12-07T01:56:42;8.25;;;2.40;;
65757;SDS011;52495;52.208;5.158;2022-12-07T01:59:13;8.77;;;2.80;;
65757;SDS011;52495;52.208;5.158;2022-12-07T02:01:41;6.90;;;2.10;;
65757;SDS011;52495;52.208;5.158;2022-12-07T02:04:07;7.75;;;2.55;;
65757;SDS011;52495;52.208;5.158;2022-12-07T02:06:36;11.18;;;4.05;;
65757;SDS011;52495;52.208;5.158;2022-12-07T02:09:04;8.77;;;2.58;;
65757;SDS011;52495;52.208;5.158;2022-12-07T02:11:31;6.40;;;2.67;;
65757;SDS011;52495;52.208;5.158;2022-12-07T02:13:57;6.38;;;2.30;;
65757;SDS011;52495;52.208;5.158;2022-12-07T02:16:26;8.93;;;2.80;;
65757;SDS011;52495;52.208;5.158;2022-12-07T02:19:06;7.47;;;2.83;;
65757;SDS011;52495;52.208;5.158;2022-12-07T02:21:53;5.93;;;3.08;;
65757;SDS011;52495;52.208;5.158;2022-12-07T02:24:31;5.68;;;3.05;;
65757;SDS011;52495;52.208;5.158;2022-12-07T02:27:20;9.65;;;3.05;;
65757;SDS011;52495;52.208;5.158;2022-12-07T02:30:03;8.15;;;2.80;;
65757;SDS011;52495;52.208;5.158;2022-12-07T02:32:36;4.53;;;2.55;;
65757;SDS011;52495;52.208;5.158;2022-12-07T02:35:09;6.07;;;2.67;;
65757;SDS011;52495;52.208;5.158;2022-12-07T02:37:41;8.65;;;3.22;;
65757;SDS011;52495;52.208;5.158;2022-12-07T02:40:16;11.07;;;2.92;;
65757;SDS011;52495;52.208;5.158;2022-12-07T02:42:48;7.50;;;2.63;;
65757;SDS011;52495;52.208;5.158;2022-12-07T02:45:20;6.68;;;3.08;;
65757;SDS011;52495;52.208;5.158;2022-12-07T02:47:50;8.60;;;3.30;;
65757;SDS011;52495;52.208;5.158;2022-12-07T02:50:19;8.20;;;3.00;;
65757;SDS011;52495;52.208;5.158;2022-12-07T02:52:46;10.13;;;3.10;;
65757;SDS011;52495;52.208;5.158;2022-12-07T02:55:13;5.38;;;2.70;;
65757;SDS011;52495;52.208;5.158;2022-12-07T02:57:48;10.18;;;2.72;;
65757;SDS011;52495;52.208;5.158;2022-12-07T03:00:30;7.68;;;2.35;;
65757;SDS011;52495;52.208;5.158;2022-12-07T03:03:02;8.00;;;2.10;;
65757;SDS011;52495;52.208;5.158;2022-12-07T03:08:36;8.77;;;2.50;;
65757;SDS011;52495;52.208;5.158;2022-12-07T03:11:10;4.40;;;2.00;;
65757;SDS011;52495;52.208;5.158;2022-12-07T03:13:41;7.05;;;2.72;;
65757;SDS011;52495;52.208;5.158;2022-12-07T03:16:16;6.93;;;2.22;;
65757;SDS011;52495;52.208;5.158;2022-12-07T03:18:46;6.05;;;2.08;;
65757;SDS011;52495;52.208;5.158;2022-12-07T03:21:18;5.10;;;1.98;;
65757;SDS011;52495;52.208;5.158;2022-12-07T03:23:48;6.20;;;2.20;;
65757;SDS011;52495;52.208;5.158;2022-12-07T03:26:18;5.25;;;2.40;;
65757;SDS011;52495;52.208;5.158;2022-12-07T03:28:48;5.43;;;2.97;;
65757;SDS011;52495;52.208;5.158;2022-12-07T03:31:21;8.20;;;2.50;;
65757;SDS011;52495;52.208;5.158;2022-12-07T03:33:53;6.18;;;2.30;;
65757;SDS011;52495;52.208;5.158;2022-12-07T03:36:26;6.18;;;2.55;;
65757;SDS011;52495;52.208;5.158;2022-12-07T03:38:58;6.07;;;1.90;;
65757;SDS011;52495;52.208;5.158;2022-12-07T03:41:31;4.90;;;2.25;;
65757;SDS011;52495;52.208;5.158;2022-12-07T03:44:01;4.78;;;2.15;;
65757;SDS011;52495;52.208;5.158;2022-12-07T03:46:32;6.28;;;2.58;;
65757;SDS011;52495;52.208;5.158;2022-12-07T03:49:05;4.38;;;2.08;;
65757;SDS011;52495;52.208;5.158;2022-12-07T03:51:39;4.10;;;1.98;;
65757;SDS011;52495;52.208;5.158;2022-12-07T03:54:13;5.13;;;2.17;;
65757;SDS011;52495;52.208;5.158;2022-12-07T03:56:45;4.65;;;2.00;;
65757;SDS011;52495;52.208;5.158;2022-12-07T03:59:12;4.25;;;2.10;;
65757;SDS011;52495;52.208;5.158;2022-12-07T04:01:43;6.85;;;2.33;;
65757;SDS011;52495;52.208;5.158;2022-12-07T04:04:10;5.53;;;1.90;;
65757;SDS011;52495;52.208;5.158;2022-12-07T04:06:37;8.07;;;2.70;;
65757;SDS011;52495;52.208;5.158;2022-12-07T04:09:03;3.72;;;2.10;;
65757;SDS011;52495;52.208;5.158;2022-12-07T04:11:30;6.15;;;2.35;;
65757;SDS011;52495;52.208;5.158;2022-12-07T04:13:57;6.65;;;2.38;;
65757;SDS011;52495;52.208;5.158;2022-12-07T04:16:41;7.90;;;2.50;;
65757;SDS011;52495;52.208;5.158;2022-12-07T04:19:09;6.47;;;2.53;;
65757;SDS011;52495;52.208;5.158;2022-12-07T04:21:35;8.82;;;2.70;;
65757;SDS011;52495;52.208;5.158;2022-12-07T04:24:02;5.00;;;2.00;;
65757;SDS011;52495;52.208;5.158;2022-12-07T04:26:29;7.90;;;2.30;;
65757;SDS011;52495;52.208;5.158;2022-12-07T04:28:56;9.05;;;1.70;;
65757;SDS011;52495;52.208;5.158;2022-12-07T04:31:23;9.05;;;1.58;;
65757;SDS011;52495;52.208;5.158;2022-12-07T04:33:50;10.43;;;2.10;;
65757;SDS011;52495;52.208;5.158;2022-12-07T04:36:18;4.55;;;1.70;;
65757;SDS011;52495;52.208;5.158;2022-12-07T04:38:45;7.45;;;1.35;;
65757;SDS011;52495;52.208;5.158;2022-12-07T04:41:12;7.00;;;1.88;;
65757;SDS011;52495;52.208;5.158;2022-12-07T04:43:39;6.35;;;1.50;;
65757;SDS011;52495;52.208;5.158;2022-12-07T04:46:06;8.65;;;2.03;;
65757;SDS011;52495;52.208;5.158;2022-12-07T04:48:32;6.53;;;1.40;;
65757;SDS011;52495;52.208;5.158;2022-12-07T04:50:59;4.88;;;1.50;;
65757;SDS011;52495;52.208;5.158;2022-12-07T04:53:27;5.95;;;1.27;;
65757;SDS011;52495;52.208;5.158;2022-12-07T04:55:54;7.68;;;1.90;;
65757;SDS011;52495;52.208;5.158;2022-12-07T04:58:20;7.70;;;1.67;;
65757;SDS011;52495;52.208;5.158;2022-12-07T05:00:47;7.18;;;2.22;;
65757;SDS011;52495;52.208;5.158;2022-12-07T05:03:14;3.58;;;1.60;;
65757;SDS011;52495;52.208;5.158;2022-12-07T05:05:40;7.82;;;1.70;;
65757;SDS011;52495;52.208;5.158;2022-12-07T05:08:07;6.72;;;2.08;;
65757;SDS011;52495;52.208;5.158;2022-12-07T05:10:35;6.15;;;1.80;;
65757;SDS011;52495;52.208;5.158;2022-12-07T05:13:02;7.03;;;1.60;;
65757;SDS011;52495;52.208;5.158;2022-12-07T05:15:28;4.38;;;1.83;;
65757;SDS011;52495;52.208;5.158;2022-12-07T05:17:55;3.53;;;1.42;;
65757;SDS011;52495;52.208;5.158;2022-12-07T05:20:22;5.85;;;1.60;;
65757;SDS011;52495;52.208;5.158;2022-12-07T05:22:48;4.90;;;1.92;;
65757;SDS011;52495;52.208;5.158;2022-12-07T05:25:15;11.60;;;5.40;;
65757;SDS011;52495;52.208;5.158;2022-12-07T05:27:43;8.18;;;5.15;;
65757;SDS011;52495;52.208;5.158;2022-12-07T05:30:10;6.20;;;2.55;;
65757;SDS011;52495;52.208;5.158;2022-12-07T05:32:38;11.52;;;2.67;;
65757;SDS011;52495;52.208;5.158;2022-12-07T05:35:05;6.85;;;2.65;;
65757;SDS011;52495;52.208;5.158;2022-12-07T05:37:32;4.95;;;2.25;;
65757;SDS011;52495;52.208;5.158;2022-12-07T05:39:58;5.13;;;2.50;;
65757;SDS011;52495;52.208;5.158;2022-12-07T05:42:25;6.53;;;2.05;;
65757;SDS011;52495;52.208;5.158;2022-12-07T05:44:53;7.40;;;3.15;;
65757;SDS011;52495;52.208;5.158;2022-12-07T05:47:20;6.82;;;2.55;;
65757;SDS011;52495;52.208;5.158;2022-12-07T05:49:46;6.10;;;2.10;;
65757;SDS011;52495;52.208;5.158;2022-12-07T05:52:13;3.38;;;1.92;;
65757;SDS011;52495;52.208;5.158;2022-12-07T05:54:40;5.18;;;2.17;;
65757;SDS011;52495;52.208;5.158;2022-12-07T05:57:06;7.90;;;2.22;;
65757;SDS011;52495;52.208;5.158;2022-12-07T05:59:33;8.63;;;2.00;;
65757;SDS011;52495;52.208;5.158;2022-12-07T06:02:01;5.82;;;2.00;;
65757;SDS011;52495;52.208;5.158;2022-12-07T06:04:29;10.00;;;2.33;;
65757;SDS011;52495;52.208;5.158;2022-12-07T06:06:57;6.13;;;2.00;;
65757;SDS011;52495;52.208;5.158;2022-12-07T06:09:24;4.95;;;1.98;;
65757;SDS011;52495;52.208;5.158;2022-12-07T06:11:52;4.80;;;2.17;;
65757;SDS011;52495;52.208;5.158;2022-12-07T06:14:37;4.25;;;1.77;;
65757;SDS011;52495;52.208;5.158;2022-12-07T06:17:05;3.63;;;1.80;;
65757;SDS011;52495;52.208;5.158;2022-12-07T06:19:32;3.83;;;1.83;;
65757;SDS011;52495;52.208;5.158;2022-12-07T06:22:00;5.05;;;1.90;;
65757;SDS011;52495;52.208;5.158;2022-12-07T06:24:27;3.40;;;1.88;;
65757;SDS011;52495;52.208;5.158;2022-12-07T06:26:54;5.35;;;1.60;;
65757;SDS011;52495;52.208;5.158;2022-12-07T06:29:21;4.50;;;1.80;;
65757;SDS011;52495;52.208;5.158;2022-12-07T06:31:48;10.68;;;2.53;;
65757;SDS011;52495;52.208;5.158;2022-12-07T06:34:16;6.35;;;2.33;;
65757;SDS011;52495;52.208;5.158;2022-12-07T06:36:44;4.57;;;1.98;;
65757;SDS011;52495;52.208;5.158;2022-12-07T06:39:16;4.72;;;2.15;;
65757;SDS011;52495;52.208;5.158;2022-12-07T06:41:43;5.22;;;2.08;;
65757;SDS011;52495;52.208;5.158;2022-12-07T06:44:10;7.10;;;2.83;;
65757;SDS011;52495;52.208;5.158;2022-12-07T06:46:36;7.07;;;2.10;;
65757;SDS011;52495;52.208;5.158;2022-12-07T06:49:04;5.28;;;2.17;;
65757;SDS011;52495;52.208;5.158;2022-12-07T06:51:32;7.45;;;2.17;;
65757;SDS011;52495;52.208;5.158;2022-12-07T06:54:01;5.85;;;1.90;;
65757;SDS011;52495;52.208;5.158;2022-12-07T06:56:28;4.43;;;1.50;;
65757;SDS011;52495;52.208;5.158;2022-12-07T06:58:55;6.65;;;2.00;;
65757;SDS011;52495;52.208;5.158;2022-12-07T07:01:22;8.73;;;1.92;;
65757;SDS011;52495;52.208;5.158;2022-12-07T07:03:48;6.85;;;2.40;;
65757;SDS011;52495;52.208;5.158;2022-12-07T07:06:15;4.82;;;2.20;;
65757;SDS011;52495;52.208;5.158;2022-12-07T07:08:43;6.65;;;2.20;;
65757;SDS011;52495;52.208;5.158;2022-12-07T07:11:10;6.30;;;2.30;;
65757;SDS011;52495;52.208;5.158;2022-12-07T07:13:37;8.02;;;2.10;;
65757;SDS011;52495;52.208;5.158;2022-12-07T07:16:04;4.90;;;1.92;;
65757;SDS011;52495;52.208;5.158;2022-12-07T07:18:31;8.13;;;2.78;;
65757;SDS011;52495;52.208;5.158;2022-12-07T07:20:58;6.22;;;2.30;;
65757;SDS011;52495;52.208;5.158;2022-12-07T07:23:26;4.55;;;2.20;;
65757;SDS011;52495;52.208;5.158;2022-12-07T07:25:54;7.38;;;2.63;;
65757;SDS011;52495;52.208;5.158;2022-12-07T07:28:20;9.45;;;1.92;;
65757;SDS011;52495;52.208;5.158;2022-12-07T07:30:49;3.80;;;2.30;;
65757;SDS011;52495;52.208;5.158;2022-12-07T07:33:15;6.10;;;2.03;;
65757;SDS011;52495;52.208;5.158;2022-12-07T07:35:42;5.72;;;2.65;;
65757;SDS011;52495;52.208;5.158;2022-12-07T07:38:09;6.93;;;2.63;;
65757;SDS011;52495;52.208;5.158;2022-12-07T07:40:36;6.55;;;2.40;;
65757;SDS011;52495;52.208;5.158;2022-12-07T07:43:04;7.45;;;2.28;;
65757;SDS011;52495;52.208;5.158;2022-12-07T07:45:30;6.47;;;2.30;;
65757;SDS011;52495;52.208;5.158;2022-12-07T07:47:57;8.25;;;3.70;;
65757;SDS011;52495;52.208;5.158;2022-12-07T07:50:24;12.70;;;5.57;;
65757;SDS011;52495;52.208;5.158;2022-12-07T07:52:51;10.02;;;4.20;;
65757;SDS011;52495;52.208;5.158;2022-12-07T07:55:18;9.85;;;4.05;;
65757;SDS011;52495;52.208;5.158;2022-12-07T07:57:46;9.18;;;4.88;;
65757;SDS011;52495;52.208;5.158;2022-12-07T08:00:15;10.65;;;2.63;;
65757;SDS011;52495;52.208;5.158;2022-12-07T08:02:42;8.18;;;2.35;;
65757;SDS011;52495;52.208;5.158;2022-12-07T08:05:11;5.32;;;2.00;;
65757;SDS011;52495;52.208;5.158;2022-12-07T08:07:38;5.38;;;1.77;;
65757;SDS011;52495;52.208;5.158;2022-12-07T08:10:06;12.43;;;2.50;;
65757;SDS011;52495;52.208;5.158;2022-12-07T08:12:36;7.13;;;2.22;;
65757;SDS011;52495;52.208;5.158;2022-12-07T08:15:26;8.27;;;2.53;;
65757;SDS011;52495;52.208;5.158;2022-12-07T08:17:54;11.57;;;2.45;;
65757;SDS011;52495;52.208;5.158;2022-12-07T08:20:21;10.75;;;3.25;;
65757;SDS011;52495;52.208;5.158;2022-12-07T08:22:48;10.63;;;2.45;;
65757;SDS011;52495;52.208;5.158;2022-12-07T08:25:15;7.35;;;2.92;;
65757;SDS011;52495;52.208;5.158;2022-12-07T08:27:41;6.15;;;2.75;;
65757;SDS011;52495;52.208;5.158;2022-12-07T08:30:08;8.30;;;2.03;;
65757;SDS011;52495;52.208;5.158;2022-12-07T08:32:37;9.57;;;2.00;;
65757;SDS011;52495;52.208;5.158;2022-12-07T08:35:04;10.02;;;2.00;;
65757;SDS011;52495;52.208;5.158;2022-12-07T08:37:31;10.63;;;2.80;;
65757;SDS011;52495;52.208;5.158;2022-12-07T08:39:58;9.32;;;2.80;;
65757;SDS011;52495;52.208;5.158;2022-12-07T08:42:24;19.60;;;5.97;;
65757;SDS011;52495;52.208;5.158;2022-12-07T08:44:54;23.88;;;8.10;;
65757;SDS011;52495;52.208;5.158;2022-12-07T08:47:21;11.48;;;4.53;;
65757;SDS011;52495;52.208;5.158;2022-12-07T08:49:51;11.43;;;4.05;;
65757;SDS011;52495;52.208;5.158;2022-12-07T08:52:20;8.02;;;3.63;;
65757;SDS011;52495;52.208;5.158;2022-12-07T08:54:46;5.70;;;2.45;;
65757;SDS011;52495;52.208;5.158;2022-12-07T08:57:14;7.00;;;2.33;;
65757;SDS011;52495;52.208;5.158;2022-12-07T08:59:41;6.68;;;2.35;;
65757;SDS011;52495;52.208;5.158;2022-12-07T09:02:07;8.43;;;2.13;;
65757;SDS011;52495;52.208;5.158;2022-12-07T09:04:34;4.43;;;2.10;;
65757;SDS011;52495;52.208;5.158;2022-12-07T09:07:02;6.75;;;1.70;;
65757;SDS011;52495;52.208;5.158;2022-12-07T09:09:29;6.00;;;2.08;;
65757;SDS011;52495;52.208;5.158;2022-12-07T09:11:55;11.27;;;3.10;;
65757;SDS011;52495;52.208;5.158;2022-12-07T09:14:22;9.07;;;1.83;;
65757;SDS011;52495;52.208;5.158;2022-12-07T09:16:49;7.57;;;2.58;;
65757;SDS011;52495;52.208;5.158;2022-12-07T09:19:16;11.70;;;3.00;;
65757;SDS011;52495;52.208;5.158;2022-12-07T09:21:42;7.30;;;2.22;;
65757;SDS011;52495;52.208;5.158;2022-12-07T09:24:11;8.85;;;2.10;;
65757;SDS011;52495;52.208;5.158;2022-12-07T09:26:38;8.25;;;3.45;;
65757;SDS011;52495;52.208;5.158;2022-12-07T09:29:05;6.97;;;2.22;;
65757;SDS011;52495;52.208;5.158;2022-12-07T09:31:32;10.55;;;3.05;;
65757;SDS011;52495;52.208;5.158;2022-12-07T09:33:59;7.50;;;1.95;;
65757;SDS011;52495;52.208;5.158;2022-12-07T09:36:27;9.10;;;2.60;;
65757;SDS011;52495;52.208;5.158;2022-12-07T09:38:54;8.23;;;1.70;;
65757;SDS011;52495;52.208;5.158;2022-12-07T09:41:24;8.02;;;2.25;;
65757;SDS011;52495;52.208;5.158;2022-12-07T09:43:53;13.77;;;3.33;;
65757;SDS011;52495;52.208;5.158;2022-12-07T09:46:26;8.05;;;1.92;;
65757;SDS011;52495;52.208;5.158;2022-12-07T09:48:54;7.00;;;2.30;;
65757;SDS011;52495;52.208;5.158;2022-12-07T09:51:21;9.48;;;2.40;;
65757;SDS011;52495;52.208;5.158;2022-12-07T09:53:50;7.95;;;2.38;;
65757;SDS011;52495;52.208;5.158;2022-12-07T09:56:18;5.03;;;1.80;;
65757;SDS011;52495;52.208;5.158;2022-12-07T09:58:47;9.20;;;2.10;;
65757;SDS011;52495;52.208;5.158;2022-12-07T10:01:16;8.70;;;2.20;;
65757;SDS011;52495;52.208;5.158;2022-12-07T10:03:45;6.45;;;2.05;;
65757;SDS011;52495;52.208;5.158;2022-12-07T10:06:16;10.65;;;2.42;;
65757;SDS011;52495;52.208;5.158;2022-12-07T10:08:43;4.80;;;1.83;;
65757;SDS011;52495;52.208;5.158;2022-12-07T10:11:10;9.43;;;2.28;;
65757;SDS011;52495;52.208;5.158;2022-12-07T10:13:37;7.18;;;2.13;;
65757;SDS011;52495;52.208;5.158;2022-12-07T10:16:06;5.72;;;2.15;;
65757;SDS011;52495;52.208;5.158;2022-12-07T10:18:56;8.95;;;2.10;;
65757;SDS011;52495;52.208;5.158;2022-12-07T10:21:23;10.68;;;2.33;;
65757;SDS011;52495;52.208;5.158;2022-12-07T10:24:02;5.13;;;2.10;;
65757;SDS011;52495;52.208;5.158;2022-12-07T10:26:31;9.63;;;3.08;;
65757;SDS011;52495;52.208;5.158;2022-12-07T10:29:00;7.78;;;2.25;;
65757;SDS011;52495;52.208;5.158;2022-12-07T10:31:31;5.60;;;2.20;;
65757;SDS011;52495;52.208;5.158;2022-12-07T10:33:58;9.13;;;3.00;;
65757;SDS011;52495;52.208;5.158;2022-12-07T10:36:27;6.00;;;2.50;;
65757;SDS011;52495;52.208;5.158;2022-12-07T10:39:01;7.57;;;2.10;;
65757;SDS011;52495;52.208;5.158;2022-12-07T10:41:30;9.32;;;2.47;;
65757;SDS011;52495;52.208;5.158;2022-12-07T10:43:57;7.47;;;2.28;;
65757;SDS011;52495;52.208;5.158;2022-12-07T10:46:27;5.00;;;2.00;;
65757;SDS011;52495;52.208;5.158;2022-12-07T10:49:24;8.63;;;2.17;;
65757;SDS011;52495;52.208;5.158;2022-12-07T10:52:10;6.82;;;1.85;;
65757;SDS011;52495;52.208;5.158;2022-12-07T10:54:45;5.15;;;1.50;;
65757;SDS011;52495;52.208;5.158;2022-12-07T10:57:22;4.50;;;1.70;;
65757;SDS011;52495;52.208;5.158;2022-12-07T11:00:09;5.88;;;1.83;;
65757;SDS011;52495;52.208;5.158;2022-12-07T11:05:35;6.22;;;1.92;;
65757;SDS011;52495;52.208;5.158;2022-12-07T11:09:44;6.28;;;1.95;;
65757;SDS011;52495;52.208;5.158;2022-12-07T11:12:21;9.40;;;2.00;;
65757;SDS011;52495;52.208;5.158;2022-12-07T11:19:27;8.32;;;2.15;;
65757;SDS011;52495;52.208;5.158;2022-12-07T11:22:01;5.18;;;1.55;;
65757;SDS011;52495;52.208;5.158;2022-12-07T11:24:32;7.32;;;2.40;;
65757;SDS011;52495;52.208;5.158;2022-12-07T11:27:15;5.10;;;1.52;;
65757;SDS011;52495;52.208;5.158;2022-12-07T11:29:53;3.03;;;1.20;;
65757;SDS011;52495;52.208;5.158;2022-12-07T11:32:35;10.45;;;2.05;;
65757;SDS011;52495;52.208;5.158;2022-12-07T11:35:14;7.90;;;1.77;;
65757;SDS011;52495;52.208;5.158;2022-12-07T11:37:47;5.38;;;1.60;;
65757;SDS011;52495;52.208;5.158;2022-12-07T11:40:18;5.53;;;2.00;;
65757;SDS011;52495;52.208;5.158;2022-12-07T11:42:54;7.63;;;2.45;;
65757;SDS011;52495;52.208;5.158;2022-12-07T11:45:25;5.15;;;1.73;;
65757;SDS011;52495;52.208;5.158;2022-12-07T11:47:55;6.90;;;1.98;;
65757;SDS011;52495;52.208;5.158;2022-12-07T11:50:30;9.18;;;2.03;;
65757;SDS011;52495;52.208;5.158;2022-12-07T11:53:02;6.30;;;1.83;;
65757;SDS011;52495;52.208;5.158;2022-12-07T11:55:40;5.93;;;1.90;;
65757;SDS011;52495;52.208;5.158;2022-12-07T11:58:20;6.68;;;2.25;;
65757;SDS011;52495;52.208;5.158;2022-12-07T12:01:01;6.60;;;2.05;;
65757;SDS011;52495;52.208;5.158;2022-12-07T12:03:40;6.33;;;2.10;;
65757;SDS011;52495;52.208;5.158;2022-12-07T12:06:12;5.88;;;1.88;;
65757;SDS011;52495;52.208;5.158;2022-12-07T12:08:40;7.72;;;2.08;;
65757;SDS011;52495;52.208;5.158;2022-12-07T12:11:16;7.60;;;1.80;;
65757;SDS011;52495;52.208;5.158;2022-12-07T12:14:11;8.20;;;2.10;;
65757;SDS011;52495;52.208;5.158;2022-12-07T12:20:06;7.15;;;2.20;;
65757;SDS011;52495;52.208;5.158;2022-12-07T12:22:45;6.15;;;1.80;;
65757;SDS011;52495;52.208;5.158;2022-12-07T12:25:18;8.55;;;2.00;;
65757;SDS011;52495;52.208;5.158;2022-12-07T12:27:48;6.85;;;1.90;;
65757;SDS011;52495;52.208;5.158;2022-12-07T12:30:33;5.85;;;1.85;;
65757;SDS011;52495;52.208;5.158;2022-12-07T12:33:05;6.38;;;1.85;;
65757;SDS011;52495;52.208;5.158;2022-12-07T12:35:41;3.25;;;0.85;;
65757;SDS011;52495;52.208;5.158;2022-12-07T12:38:25;4.72;;;1.08;;
65757;SDS011;52495;52.208;5.158;2022-12-07T12:40:59;2.97;;;1.25;;
65757;SDS011;52495;52.208;5.158;2022-12-07T12:43:40;4.72;;;1.70;;
65757;SDS011;52495;52.208;5.158;2022-12-07T12:46:36;9.07;;;1.80;;
65757;SDS011;52495;52.208;5.158;2022-12-07T12:49:32;5.07;;;1.77;;
65757;SDS011;52495;52.208;5.158;2022-12-07T12:52:01;2.70;;;1.10;;
65757;SDS011;52495;52.208;5.158;2022-12-07T12:55:20;5.32;;;1.90;;
65757;SDS011;52495;52.208;5.158;2022-12-07T13:04:17;7.78;;;3.67;;
65757;SDS011;52495;52.208;5.158;2022-12-07T13:09:17;10.10;;;3.15;;
65757;SDS011;52495;52.208;5.158;2022-12-07T13:11:50;10.43;;;1.90;;
65757;SDS011;52495;52.208;5.158;2022-12-07T13:14:43;7.95;;;2.50;;
65757;SDS011;52495;52.208;5.158;2022-12-07T13:20:43;10.40;;;2.38;;
65757;SDS011;52495;52.208;5.158;2022-12-07T13:23:14;9.95;;;4.35;;
65757;SDS011;52495;52.208;5.158;2022-12-07T13:25:51;6.43;;;2.17;;
65757;SDS011;52495;52.208;5.158;2022-12-07T13:28:23;7.05;;;1.92;;
65757;SDS011;52495;52.208;5.158;2022-12-07T13:30:57;7.85;;;3.65;;
65757;SDS011;52495;52.208;5.158;2022-12-07T13:33:30;18.30;;;9.00;;
65757;SDS011;52495;52.208;5.158;2022-12-07T13:36:00;6.32;;;2.50;;
65757;SDS011;52495;52.208;5.158;2022-12-07T13:38:28;5.68;;;1.98;;
65757;SDS011;52495;52.208;5.158;2022-12-07T13:41:01;11.85;;;2.75;;
65757;SDS011;52495;52.208;5.158;2022-12-07T13:43:31;5.72;;;1.52;;
65757;SDS011;52495;52.208;5.158;2022-12-07T13:46:08;7.28;;;1.90;;
65757;SDS011;52495;52.208;5.158;2022-12-07T13:48:43;4.53;;;1.60;;
65757;SDS011;52495;52.208;5.158;2022-12-07T13:51:16;5.65;;;2.00;;
65757;SDS011;52495;52.208;5.158;2022-12-07T13:53:46;7.10;;;2.03;;
65757;SDS011;52495;52.208;5.158;2022-12-07T13:56:14;5.97;;;2.20;;
65757;SDS011;52495;52.208;5.158;2022-12-07T13:58:43;4.07;;;1.50;;
65757;SDS011;52495;52.208;5.158;2022-12-07T14:01:10;3.40;;;1.40;;
65757;SDS011;52495;52.208;5.158;2022-12-07T14:03:38;4.22;;;1.45;;
65757;SDS011;52495;52.208;5.158;2022-12-07T14:06:13;6.38;;;1.45;;
65757;SDS011;52495;52.208;5.158;2022-12-07T14:08:46;3.55;;;1.17;;
65757;SDS011;52495;52.208;5.158;2022-12-07T14:11:15;4.80;;;1.50;;
65757;SDS011;52495;52.208;5.158;2022-12-07T14:13:51;2.25;;;0.98;;
65757;SDS011;52495;52.208;5.158;2022-12-07T14:16:24;4.13;;;1.20;;
65757;SDS011;52495;52.208;5.158;2022-12-07T14:18:57;1.83;;;0.95;;
65757;SDS011;52495;52.208;5.158;2022-12-07T14:21:28;2.67;;;1.00;;
65757;SDS011;52495;52.208;5.158;2022-12-07T14:24:04;4.13;;;1.30;;
65757;SDS011;52495;52.208;5.158;2022-12-07T14:26:36;3.08;;;1.40;;
65757;SDS011;52495;52.208;5.158;2022-12-07T14:29:21;3.33;;;1.20;;
65757;SDS011;52495;52.208;5.158;2022-12-07T14:31:54;3.05;;;1.20;;
65757;SDS011;52495;52.208;5.158;2022-12-07T14:34:22;3.03;;;1.20;;
65757;SDS011;52495;52.208;5.158;2022-12-07T14:36:50;2.80;;;1.00;;
65757;SDS011;52495;52.208;5.158;2022-12-07T14:39:17;3.47;;;1.20;;
65757;SDS011;52495;52.208;5.158;2022-12-07T14:41:44;10.80;;;1.50;;
65757;SDS011;52495;52.208;5.158;2022-12-07T14:44:17;5.57;;;1.15;;
65757;SDS011;52495;52.208;5.158;2022-12-07T14:46:46;7.35;;;1.30;;
65757;SDS011;52495;52.208;5.158;2022-12-07T14:49:13;11.07;;;2.80;;
65757;SDS011;52495;52.208;5.158;2022-12-07T14:51:40;7.00;;;1.73;;
65757;SDS011;52495;52.208;5.158;2022-12-07T14:54:12;4.75;;;1.50;;
65757;SDS011;52495;52.208;5.158;2022-12-07T14:59:09;3.38;;;1.35;;
65757;SDS011;52495;52.208;5.158;2022-12-07T15:01:36;5.90;;;1.50;;
65757;SDS011;52495;52.208;5.158;2022-12-07T15:04:07;15.70;;;6.13;;
65757;SDS011;52495;52.208;5.158;2022-12-07T15:06:34;13.88;;;4.65;;
65757;SDS011;52495;52.208;5.158;2022-12-07T15:09:00;4.72;;;1.70;;
65757;SDS011;52495;52.208;5.158;2022-12-07T15:11:27;5.18;;;1.88;;
65757;SDS011;52495;52.208;5.158;2022-12-07T15:13:54;5.07;;;1.63;;
65757;SDS011;52495;52.208;5.158;2022-12-07T15:16:37;4.60;;;1.30;;
65757;SDS011;52495;52.208;5.158;2022-12-07T15:19:07;5.00;;;1.40;;
65757;SDS011;52495;52.208;5.158;2022-12-07T15:21:38;3.83;;;1.10;;
65757;SDS011;52495;52.208;5.158;2022-12-07T15:24:05;5.00;;;1.63;;
65757;SDS011;52495;52.208;5.158;2022-12-07T15:26:32;2.88;;;1.25;;
65757;SDS011;52495;52.208;5.158;2022-12-07T15:28:59;4.05;;;1.50;;
65757;SDS011;52495;52.208;5.158;2022-12-07T15:31:26;4.78;;;1.55;;
65757;SDS011;52495;52.208;5.158;2022-12-07T15:33:58;5.07;;;1.55;;